sensor_id;sensor_type;location;lat;lon;timestamp;pressure;altitude;pressure_sealevel;temperature;humidity
8280;BME280;8335;42.646;23.380;2022-12-18T00:01:56;95071.91;;;7.35;100.00
8280;BME280;8335;42.646;23.380;2022-12-18T00:04:24;95081.66;;;7.19;100.00
8280;BME280;8335;42.646;23.380;2022-12-18T00:06:52;95101.06;;;7.20;100.00
8280;BME280;8335;42.646;23.380;2022-12-18T00:09:19;95095.47;;;7.09;100.00
8280;BME280;8335;42.646;23.380;2022-12-18T00:11:47;95092.94;;;7.09;100.00
8280;BME280;8335;42.646;23.380;2022-12-18T00:14:14;95104.75;;;7.10;100.00
8280;BME280;8335;42.646;23.380;2022-12-18T00:16:43;95111.69;;;7.03;100.00
8280;BME280;8335;42.646;23.380;2022-12-18T00:19:11;95113.59;;;6.95;100.00
8280;BME280;8335;42.646;23.380;2022-12-18T00:21:38;95112.94;;;6.88;100.00
8280;BME280;8335;42.646;23.380;2022-12-18T00:24:05;95116.44;;;6.83;100.00
8280;BME280;8335;42.646;23.380;2022-12-18T00:26:33;95120.13;;;6.73;100.00
8280;BME280;8335;42.646;23.380;2022-12-18T00:29:04;95057.78;;;6.38;100.00
8280;BME280;8335;42.646;23.380;2022-12-18T00:31:31;95122.66;;;6.71;100.00
8280;BME280;8335;42.646;23.380;2022-12-18T00:33:58;95108.81;;;6.53;100.00
8280;BME280;8335;42.646;23.380;2022-12-18T00:36:26;95116.09;;;6.64;100.00
8280;BME280;8335;42.646;23.380;2022-12-18T00:38:54;95129.47;;;6.69;100.00
8280;BME280;8335;42.646;23.380;2022-12-18T00:41:22;95121.34;;;6.58;100.00
8280;BME280;8335;42.646;23.380;2022-12-18T00:44:10;95093.00;;;6.45;100.00
8280;BME280;8335;42.646;23.380;2022-12-18T00:46:37;95124.56;;;6.63;100.00
8280;BME280;8335;42.646;23.380;2022-12-18T00:49:04;95126.31;;;6.61;100.00
8280;BME280;8335;42.646;23.380;2022-12-18T00:51:31;95117.31;;;6.51;100.00
8280;BME280;8335;42.646;23.380;2022-12-18T00:53:58;95138.25;;;6.56;100.00
8280;BME280;8335;42.646;23.380;2022-12-18T00:56:25;95130.81;;;6.50;100.00
8280;BME280;8335;42.646;23.380;2022-12-18T00:58:52;95138.34;;;6.53;100.00
8280;BME280;8335;42.646;23.380;2022-12-18T01:01:20;95130.13;;;6.45;100.00
8280;BME280;8335;42.646;23.380;2022-12-18T01:03:47;95127.53;;;6.46;100.00
8280;BME280;8335;42.646;23.380;2022-12-18T01:06:14;95148.47;;;6.53;100.00
8280;BME280;8335;42.646;23.380;2022-12-18T01:08:42;95103.56;;;6.27;100.00
8280;BME280;8335;42.646;23.380;2022-12-18T01:11:10;95149.59;;;6.41;100.00
8280;BME280;8335;42.646;23.380;2022-12-18T01:13:37;95152.06;;;6.44;100.00
8280;BME280;8335;42.646;23.380;2022-12-18T01:16:04;95152.25;;;6.37;100.00
8280;BME280;8335;42.646;23.380;2022-12-18T01:18:32;95154.75;;;6.38;100.00
8280;BME280;8335;42.646;23.380;2022-12-18T01:20:59;95148.91;;;6.36;100.00
8280;BME280;8335;42.646;23.380;2022-12-18T01:23:26;95150.56;;;6.35;100.00
8280;BME280;8335;42.646;23.380;2022-12-18T01:25:52;95156.41;;;6.39;100.00
8280;BME280;8335;42.646;23.380;2022-12-18T01:28:19;95152.41;;;6.30;100.00
8280;BME280;8335;42.646;23.380;2022-12-18T01:30:46;95155.84;;;6.26;100.00
8280;BME280;8335;42.646;23.380;2022-12-18T01:33:13;95152.03;;;6.10;100.00
8280;BME280;8335;42.646;23.380;2022-12-18T01:35:42;95160.72;;;5.98;100.00
8280;BME280;8335;42.646;23.380;2022-12-18T01:38:09;95161.38;;;6.06;100.00
8280;BME280;8335;42.646;23.380;2022-12-18T01:40:36;95164.59;;;6.13;100.00
8280;BME280;8335;42.646;23.380;2022-12-18T01:43:04;95165.75;;;6.00;100.00
8280;BME280;8335;42.646;23.380;2022-12-18T01:45:31;95174.06;;;6.05;100.00
8280;BME280;8335;42.646;23.380;2022-12-18T01:48:00;95168.25;;;6.01;100.00
8280;BME280;8335;42.646;23.380;2022-12-18T01:50:31;95176.69;;;6.02;100.00
8280;BME280;8335;42.646;23.380;2022-12-18T01:53:03;95163.25;;;5.98;100.00
8280;BME280;8335;42.646;23.380;2022-12-18T01:55:35;95178.50;;;5.95;100.00
8280;BME280;8335;42.646;23.380;2022-12-18T01:58:04;95175.88;;;6.00;100.00
8280;BME280;8335;42.646;23.380;2022-12-18T02:00:31;95177.19;;;5.79;100.00
8280;BME280;8335;42.646;23.380;2022-12-18T02:02:58;95180.53;;;5.78;100.00
8280;BME280;8335;42.646;23.380;2022-12-18T02:05:34;95167.53;;;5.56;100.00
8280;BME280;8335;42.646;23.380;2022-12-18T02:08:09;95152.50;;;5.50;100.00
8280;BME280;8335;42.646;23.380;2022-12-18T02:10:44;95180.84;;;5.64;100.00
8280;BME280;8335;42.646;23.380;2022-12-18T02:13:19;95200.41;;;5.55;100.00
8280;BME280;8335;42.646;23.380;2022-12-18T02:15:51;95184.44;;;5.54;100.00
8280;BME280;8335;42.646;23.380;2022-12-18T02:18:23;95198.72;;;5.55;100.00
8280;BME280;8335;42.646;23.380;2022-12-18T02:20:54;95199.50;;;5.59;100.00
8280;BME280;8335;42.646;23.380;2022-12-18T02:23:37;95197.69;;;5.65;100.00
8280;BME280;8335;42.646;23.380;2022-12-18T02:26:15;95195.00;;;5.73;100.00
8280;BME280;8335;42.646;23.380;2022-12-18T02:28:46;95207.63;;;5.73;100.00
8280;BME280;8335;42.646;23.380;2022-12-18T02:31:19;95201.72;;;5.74;100.00
8280;BME280;8335;42.646;23.380;2022-12-18T02:33:48;95199.19;;;5.74;100.00
8280;BME280;8335;42.646;23.380;2022-12-18T02:36:16;95211.03;;;5.72;100.00
8280;BME280;8335;42.646;23.380;2022-12-18T02:38:45;95214.50;;;5.66;100.00
8280;BME280;8335;42.646;23.380;2022-12-18T02:41:15;95214.50;;;5.66;100.00
8280;BME280;8335;42.646;23.380;2022-12-18T02:43:46;95217.94;;;5.62;100.00
8280;BME280;8335;42.646;23.380;2022-12-18T02:46:35;95195.16;;;5.65;100.00
8280;BME280;8335;42.646;23.380;2022-12-18T02:49:10;95204.41;;;5.66;100.00
8280;BME280;8335;42.646;23.380;2022-12-18T02:51:47;95206.22;;;5.60;100.00
8280;BME280;8335;42.646;23.380;2022-12-18T02:54:23;95216.44;;;5.53;100.00
8280;BME280;8335;42.646;23.380;2022-12-18T02:56:55;95218.97;;;5.53;100.00
8280;BME280;8335;42.646;23.380;2022-12-18T02:59:30;95225.72;;;5.53;100.00
8280;BME280;8335;42.646;23.380;2022-12-18T03:02:02;95222.47;;;5.46;100.00
8280;BME280;8335;42.646;23.380;2022-12-18T03:04:38;95207.50;;;5.39;100.00
8280;BME280;8335;42.646;23.380;2022-12-18T03:07:11;95235.81;;;5.53;100.00
8280;BME280;8335;42.646;23.380;2022-12-18T03:09:44;95232.75;;;5.39;100.00
8280;BME280;8335;42.646;23.380;2022-12-18T03:12:19;95235.53;;;5.25;100.00
8280;BME280;8335;42.646;23.380;2022-12-18T03:14:53;95248.13;;;5.27;100.00
8280;BME280;8335;42.646;23.380;2022-12-18T03:17:23;95247.25;;;5.28;100.00
8280;BME280;8335;42.646;23.380;2022-12-18T03:19:53;95240.41;;;5.34;100.00
8280;BME280;8335;42.646;23.380;2022-12-18T03:22:22;95244.72;;;5.29;100.00
8280;BME280;8335;42.646;23.380;2022-12-18T03:24:50;95243.97;;;5.24;100.00
8280;BME280;8335;42.646;23.380;2022-12-18T03:27:20;95251.44;;;5.29;100.00
8280;BME280;8335;42.646;23.380;2022-12-18T03:29:51;95249.03;;;5.24;100.00
8280;BME280;8335;42.646;23.380;2022-12-18T03:32:24;95254.00;;;5.27;100.00
8280;BME280;8335;42.646;23.380;2022-12-18T03:34:53;95259.34;;;5.12;100.00
8280;BME280;8335;42.646;23.380;2022-12-18T03:37:23;95273.56;;;5.17;100.00
8280;BME280;8335;42.646;23.380;2022-12-18T03:39:49;95277.72;;;5.18;100.00
8280;BME280;8335;42.646;23.380;2022-12-18T03:42:25;95278.41;;;5.27;100.00
8280;BME280;8335;42.646;23.380;2022-12-18T03:44:58;95280.19;;;5.23;100.00
8280;BME280;8335;42.646;23.380;2022-12-18T03:47:34;95277.75;;;5.17;100.00
8280;BME280;8335;42.646;23.380;2022-12-18T03:50:09;95291.13;;;5.23;100.00
8280;BME280;8335;42.646;23.380;2022-12-18T03:52:40;95299.63;;;5.18;100.00
8280;BME280;8335;42.646;23.380;2022-12-18T03:55:09;95295.41;;;5.18;100.00
8280;BME280;8335;42.646;23.380;2022-12-18T03:57:39;95291.31;;;5.11;100.00
8280;BME280;8335;42.646;23.380;2022-12-18T04:00:11;95303.13;;;5.11;100.00
8280;BME280;8335;42.646;23.380;2022-12-18T04:02:44;95298.03;;;5.12;100.00
8280;BME280;8335;42.646;23.380;2022-12-18T04:05:12;95267.31;;;4.89;100.00
8280;BME280;8335;42.646;23.380;2022-12-18T04:07:41;95294.88;;;5.01;100.00
8280;BME280;8335;42.646;23.380;2022-12-18T04:10:10;95290.81;;;4.92;100.00
8280;BME280;8335;42.646;23.380;2022-12-18T04:12:40;95291.59;;;4.96;100.00
8280;BME280;8335;42.646;23.380;2022-12-18T04:15:08;95300.06;;;4.93;100.00
8280;BME280;8335;42.646;23.380;2022-12-18T04:17:35;95300.19;;;4.86;100.00
8280;BME280;8335;42.646;23.380;2022-12-18T04:20:02;95315.28;;;4.89;100.00
8280;BME280;8335;42.646;23.380;2022-12-18T04:22:29;95271.81;;;4.73;100.00
8280;BME280;8335;42.646;23.380;2022-12-18T04:24:55;95310.91;;;4.97;100.00
8280;BME280;8335;42.646;23.380;2022-12-18T04:27:22;95319.41;;;4.93;100.00
8280;BME280;8335;42.646;23.380;2022-12-18T04:29:50;95316.28;;;4.77;100.00
8280;BME280;8335;42.646;23.380;2022-12-18T04:32:17;95317.25;;;4.72;100.00
8280;BME280;8335;42.646;23.380;2022-12-18T04:34:44;95327.22;;;4.79;100.00
8280;BME280;8335;42.646;23.380;2022-12-18T04:37:11;95330.63;;;4.75;100.00
8280;BME280;8335;42.646;23.380;2022-12-18T04:39:37;95338.06;;;4.83;100.00
8280;BME280;8335;42.646;23.380;2022-12-18T04:42:04;95333.78;;;4.88;100.00
8280;BME280;8335;42.646;23.380;2022-12-18T04:44:31;95338.78;;;4.91;100.00
8280;BME280;8335;42.646;23.380;2022-12-18T04:46:59;95345.59;;;4.87;100.00
8280;BME280;8335;42.646;23.380;2022-12-18T04:49:26;95350.56;;;4.90;100.00
8280;BME280;8335;42.646;23.380;2022-12-18T04:51:52;95353.13;;;4.89;100.00
8280;BME280;8335;42.646;23.380;2022-12-18T04:54:19;95354.94;;;4.81;100.00
8280;BME280;8335;42.646;23.380;2022-12-18T04:56:46;95351.56;;;4.82;100.00
8280;BME280;8335;42.646;23.380;2022-12-18T04:59:13;95364.16;;;4.82;100.00
8280;BME280;8335;42.646;23.380;2022-12-18T05:01:40;95360.06;;;4.75;100.00
8280;BME280;8335;42.646;23.380;2022-12-18T05:04:08;95364.25;;;4.76;100.00
8280;BME280;8335;42.646;23.380;2022-12-18T05:06:35;95364.25;;;4.76;100.00
8280;BME280;8335;42.646;23.380;2022-12-18T05:09:02;95366.84;;;4.71;100.00
8280;BME280;8335;42.646;23.380;2022-12-18T05:11:28;95372.00;;;4.63;100.00
8280;BME280;8335;42.646;23.380;2022-12-18T05:13:55;95379.66;;;4.59;100.00
8280;BME280;8335;42.646;23.380;2022-12-18T05:16:22;95368.81;;;4.52;100.00
8280;BME280;8335;42.646;23.380;2022-12-18T05:18:48;95385.66;;;4.50;100.00
8280;BME280;8335;42.646;23.380;2022-12-18T05:21:17;95389.91;;;4.47;100.00
8280;BME280;8335;42.646;23.380;2022-12-18T05:23:43;95391.59;;;4.46;100.00
8280;BME280;8335;42.646;23.380;2022-12-18T05:26:14;95395.84;;;4.44;100.00
8280;BME280;8335;42.646;23.380;2022-12-18T05:28:42;95401.72;;;4.43;100.00
8280;BME280;8335;42.646;23.380;2022-12-18T05:31:09;95400.13;;;4.34;100.00
8280;BME280;8335;42.646;23.380;2022-12-18T05:33:36;95378.50;;;4.20;100.00
8280;BME280;8335;42.646;23.380;2022-12-18T05:36:06;95398.59;;;4.24;100.00
8280;BME280;8335;42.646;23.380;2022-12-18T05:38:36;95414.50;;;4.31;100.00
8280;BME280;8335;42.646;23.380;2022-12-18T05:41:04;95412.66;;;4.40;100.00
8280;BME280;8335;42.646;23.380;2022-12-18T05:43:33;95406.03;;;4.33;100.00
8280;BME280;8335;42.646;23.380;2022-12-18T05:46:03;95413.47;;;4.42;100.00
8280;BME280;8335;42.646;23.380;2022-12-18T05:48:30;95411.88;;;4.38;100.00
8280;BME280;8335;42.646;23.380;2022-12-18T05:51:04;95410.22;;;4.34;100.00
8280;BME280;8335;42.646;23.380;2022-12-18T05:53:31;95413.66;;;4.30;100.00
8280;BME280;8335;42.646;23.380;2022-12-18T05:56:01;95418.69;;;4.32;100.00
8280;BME280;8335;42.646;23.380;2022-12-18T05:58:29;95424.50;;;4.37;100.00
8280;BME280;8335;42.646;23.380;2022-12-18T06:00:56;95427.84;;;4.37;100.00
8280;BME280;8335;42.646;23.380;2022-12-18T06:03:23;95432.16;;;4.29;100.00
8280;BME280;8335;42.646;23.380;2022-12-18T06:05:49;95435.53;;;4.27;100.00
8280;BME280;8335;42.646;23.380;2022-12-18T06:08:16;95442.25;;;4.28;100.00
8280;BME280;8335;42.646;23.380;2022-12-18T06:10:49;95440.50;;;4.36;100.00
8280;BME280;8335;42.646;23.380;2022-12-18T06:13:19;95443.84;;;4.33;100.00
8280;BME280;8335;42.646;23.380;2022-12-18T06:15:46;95443.88;;;4.32;100.00
8280;BME280;8335;42.646;23.380;2022-12-18T06:18:12;95419.59;;;4.25;100.00
8280;BME280;8335;42.646;23.380;2022-12-18T06:20:39;95453.00;;;4.42;100.00
8280;BME280;8335;42.646;23.380;2022-12-18T06:23:07;95445.56;;;4.33;100.00
8280;BME280;8335;42.646;23.380;2022-12-18T06:25:37;95459.03;;;4.30;100.00
8280;BME280;8335;42.646;23.380;2022-12-18T06:28:04;95462.44;;;4.26;100.00
8280;BME280;8335;42.646;23.380;2022-12-18T06:30:32;95458.28;;;4.21;100.00
8280;BME280;8335;42.646;23.380;2022-12-18T06:32:59;95464.25;;;4.17;100.00
8280;BME280;8335;42.646;23.380;2022-12-18T06:35:26;95471.72;;;4.23;100.00
8280;BME280;8335;42.646;23.380;2022-12-18T06:37:53;95469.16;;;4.26;100.00
8280;BME280;8335;42.646;23.380;2022-12-18T06:40:20;95462.53;;;4.17;100.00
8280;BME280;8335;42.646;23.380;2022-12-18T06:42:46;95478.28;;;4.37;100.00
8280;BME280;8335;42.646;23.380;2022-12-18T06:45:13;95384.94;;;3.73;100.00
8280;BME280;8335;42.646;23.380;2022-12-18T06:47:41;95479.22;;;4.29;100.00
8280;BME280;8335;42.646;23.380;2022-12-18T06:50:08;95490.09;;;4.32;100.00
8280;BME280;8335;42.646;23.380;2022-12-18T06:52:35;95488.44;;;4.31;100.00
8280;BME280;8335;42.646;23.380;2022-12-18T06:55:03;95491.03;;;4.24;100.00
8280;BME280;8335;42.646;23.380;2022-12-18T06:57:30;95486.03;;;4.19;100.00
8280;BME280;8335;42.646;23.380;2022-12-18T06:59:57;95503.56;;;4.31;100.00
8280;BME280;8335;42.646;23.380;2022-12-18T07:02:23;95504.28;;;4.41;100.00
8280;BME280;8335;42.646;23.380;2022-12-18T07:04:51;95502.53;;;4.48;100.00
8280;BME280;8335;42.646;23.380;2022-12-18T07:07:18;95493.28;;;4.47;100.00
8280;BME280;8335;42.646;23.380;2022-12-18T07:09:45;95510.06;;;4.51;100.00
8280;BME280;8335;42.646;23.380;2022-12-18T07:12:12;95505.06;;;4.46;100.00
8280;BME280;8335;42.646;23.380;2022-12-18T07:14:38;95511.75;;;4.50;100.00
8280;BME280;8335;42.646;23.380;2022-12-18T07:17:05;95506.66;;;4.53;100.00
8280;BME280;8335;42.646;23.380;2022-12-18T07:19:32;95510.00;;;4.55;100.00
8280;BME280;8335;42.646;23.380;2022-12-18T07:22:01;95503.25;;;4.59;100.00
8280;BME280;8335;42.646;23.380;2022-12-18T07:24:28;95514.19;;;4.58;100.00
8280;BME280;8335;42.646;23.380;2022-12-18T07:26:54;95518.38;;;4.59;100.00
8280;BME280;8335;42.646;23.380;2022-12-18T07:29:21;95509.97;;;4.58;100.00
8280;BME280;8335;42.646;23.380;2022-12-18T07:31:48;95510.75;;;4.62;100.00
8280;BME280;8335;42.646;23.380;2022-12-18T07:34:15;95525.97;;;4.57;100.00
8280;BME280;8335;42.646;23.380;2022-12-18T07:36:41;95525.09;;;4.58;100.00
8280;BME280;8335;42.646;23.380;2022-12-18T07:39:10;95492.56;;;4.38;100.00
8280;BME280;8335;42.646;23.380;2022-12-18T07:41:37;95525.97;;;4.57;100.00
8280;BME280;8335;42.646;23.380;2022-12-18T07:44:09;95525.97;;;4.56;100.00
8280;BME280;8335;42.646;23.380;2022-12-18T07:46:36;95530.97;;;4.59;100.00
8280;BME280;8335;42.646;23.380;2022-12-18T07:49:02;95535.25;;;4.54;99.90
8280;BME280;8335;42.646;23.380;2022-12-18T07:51:29;95531.06;;;4.53;100.00
8280;BME280;8335;42.646;23.380;2022-12-18T07:53:56;95539.41;;;4.56;99.65
8280;BME280;8335;42.646;23.380;2022-12-18T07:56:24;95541.84;;;4.62;99.48
8280;BME280;8335;42.646;23.380;2022-12-18T07:58:51;95541.13;;;4.54;99.75
8280;BME280;8335;42.646;23.380;2022-12-18T08:01:18;95548.72;;;4.51;99.77
8280;BME280;8335;42.646;23.380;2022-12-18T08:03:44;95552.09;;;4.52;99.47
8280;BME280;8335;42.646;23.380;2022-12-18T08:06:11;95557.91;;;4.55;99.53
8280;BME280;8335;42.646;23.380;2022-12-18T08:08:38;95563.06;;;4.46;99.82
8280;BME280;8335;42.646;23.380;2022-12-18T08:11:06;95571.41;;;4.50;100.00
8280;BME280;8335;42.646;23.380;2022-12-18T08:13:34;95570.72;;;4.38;99.70
8280;BME280;8335;42.646;23.380;2022-12-18T08:16:03;95567.41;;;4.32;100.00
8280;BME280;8335;42.646;23.380;2022-12-18T08:18:32;95594.19;;;4.42;100.00
8280;BME280;8335;42.646;23.380;2022-12-18T08:21:07;95590.91;;;4.35;100.00
8280;BME280;8335;42.646;23.380;2022-12-18T08:23:34;95588.38;;;4.35;100.00
8280;BME280;8335;42.646;23.380;2022-12-18T08:26:00;95597.56;;;4.41;100.00
8280;BME280;8335;42.646;23.380;2022-12-18T08:28:27;95600.97;;;4.40;99.64
8280;BME280;8335;42.646;23.380;2022-12-18T08:30:55;95596.81;;;4.33;99.64
8280;BME280;8335;42.646;23.380;2022-12-18T08:33:22;95604.47;;;4.25;100.00
8280;BME280;8335;42.646;23.380;2022-12-18T08:35:49;95602.81;;;4.20;100.00
8280;BME280;8335;42.646;23.380;2022-12-18T08:38:18;95600.28;;;4.23;100.00
8280;BME280;8335;42.646;23.380;2022-12-18T08:40:45;95600.22;;;4.27;100.00
8280;BME280;8335;42.646;23.380;2022-12-18T08:43:12;95597.66;;;4.33;100.00
8280;BME280;8335;42.646;23.380;2022-12-18T08:45:58;95609.25;;;4.51;100.00
8280;BME280;8335;42.646;23.380;2022-12-18T08:48:24;95614.34;;;4.47;99.80
8280;BME280;8335;42.646;23.380;2022-12-18T08:50:55;95590.16;;;4.26;98.98
8280;BME280;8335;42.646;23.380;2022-12-18T08:53:21;95611.91;;;4.37;98.88
8280;BME280;8335;42.646;23.380;2022-12-18T08:55:48;95606.91;;;4.33;99.01
8280;BME280;8335;42.646;23.380;2022-12-18T08:58:15;95607.81;;;4.29;99.25
8280;BME280;8335;42.646;23.380;2022-12-18T09:00:42;95601.84;;;4.34;99.18
8280;BME280;8335;42.646;23.380;2022-12-18T09:03:12;95603.50;;;4.38;99.07
8280;BME280;8335;42.646;23.380;2022-12-18T09:05:39;95603.34;;;4.54;97.99
8280;BME280;8335;42.646;23.380;2022-12-18T09:08:06;95608.44;;;4.48;97.91
8280;BME280;8335;42.646;23.380;2022-12-18T09:10:33;95606.81;;;4.44;97.37
8280;BME280;8335;42.646;23.380;2022-12-18T09:13:00;95602.63;;;4.39;97.47
8280;BME280;8335;42.646;23.380;2022-12-18T09:15:27;95598.31;;;4.49;97.12
8280;BME280;8335;42.646;23.380;2022-12-18T09:17:53;95594.09;;;4.54;96.03
8280;BME280;8335;42.646;23.380;2022-12-18T09:20:21;95578.06;;;4.57;96.61
8280;BME280;8335;42.646;23.380;2022-12-18T09:22:48;95589.72;;;4.68;94.97
8280;BME280;8335;42.646;23.380;2022-12-18T09:25:15;95603.13;;;4.74;95.32
8280;BME280;8335;42.646;23.380;2022-12-18T09:27:42;95606.44;;;4.79;95.79
8280;BME280;8335;42.646;23.380;2022-12-18T09:30:09;95610.66;;;4.77;95.68
8280;BME280;8335;42.646;23.380;2022-12-18T09:32:36;95607.41;;;4.67;96.17
8280;BME280;8335;42.646;23.380;2022-12-18T09:35:04;95595.56;;;4.74;95.78
8280;BME280;8335;42.646;23.380;2022-12-18T09:37:32;95608.03;;;4.86;94.80
8280;BME280;8335;42.646;23.380;2022-12-18T09:39:58;95614.69;;;4.93;94.01
8280;BME280;8335;42.646;23.380;2022-12-18T09:42:25;95610.50;;;4.90;93.85
8280;BME280;8335;42.646;23.380;2022-12-18T09:44:53;95603.84;;;4.83;91.68
8280;BME280;8335;42.646;23.380;2022-12-18T09:47:23;95622.38;;;4.81;92.35
8280;BME280;8335;42.646;23.380;2022-12-18T09:49:54;95591.50;;;4.60;92.35
8280;BME280;8335;42.646;23.380;2022-12-18T09:52:26;95610.75;;;4.69;92.08
8280;BME280;8335;42.646;23.380;2022-12-18T09:54:59;95600.50;;;4.83;91.17
8280;BME280;8335;42.646;23.380;2022-12-18T09:57:29;95612.16;;;4.93;91.35
8280;BME280;8335;42.646;23.380;2022-12-18T10:00:09;95606.16;;;5.02;91.58
8280;BME280;8335;42.646;23.380;2022-12-18T10:02:38;95607.69;;;5.13;91.40
8280;BME280;8335;42.646;23.380;2022-12-18T10:05:06;95617.78;;;5.13;91.44
8280;BME280;8335;42.646;23.380;2022-12-18T10:07:43;95602.72;;;5.06;91.22
8280;BME280;8335;42.646;23.380;2022-12-18T10:10:23;95613.50;;;5.21;89.90
8280;BME280;8335;42.646;23.380;2022-12-18T10:12:57;95615.91;;;5.29;89.15
8280;BME280;8335;42.646;23.380;2022-12-18T10:15:34;95614.28;;;5.23;88.83
8280;BME280;8335;42.646;23.380;2022-12-18T10:18:10;95621.13;;;5.14;89.68
8280;BME280;8335;42.646;23.380;2022-12-18T10:20:47;95527.69;;;4.52;88.90
8280;BME280;8335;42.646;23.380;2022-12-18T10:23:20;95517.53;;;4.58;88.45
8280;BME280;8335;42.646;23.380;2022-12-18T10:25:59;95611.97;;;5.07;88.67
8280;BME280;8335;42.646;23.380;2022-12-18T10:28:29;95613.69;;;5.05;89.63
8280;BME280;8335;42.646;23.380;2022-12-18T10:30:57;95615.28;;;5.12;89.13
8280;BME280;8335;42.646;23.380;2022-12-18T10:33:28;95557.66;;;4.80;90.07
8280;BME280;8335;42.646;23.380;2022-12-18T10:35:56;95600.88;;;5.18;89.64
8280;BME280;8335;42.646;23.380;2022-12-18T10:38:25;95605.00;;;5.25;89.99
8280;BME280;8335;42.646;23.380;2022-12-18T10:40:55;95604.13;;;5.30;88.49
8280;BME280;8335;42.646;23.380;2022-12-18T10:43:25;95615.97;;;5.24;88.32
8280;BME280;8335;42.646;23.380;2022-12-18T10:46:04;95603.38;;;5.20;88.90
8280;BME280;8335;42.646;23.380;2022-12-18T10:48:39;95594.94;;;5.21;89.55
8280;BME280;8335;42.646;23.380;2022-12-18T10:51:07;95606.72;;;5.23;88.96
8280;BME280;8335;42.646;23.380;2022-12-18T10:53:36;95609.16;;;5.31;88.69
8280;BME280;8335;42.646;23.380;2022-12-18T10:56:05;95604.91;;;5.33;89.08
8280;BME280;8335;42.646;23.380;2022-12-18T10:58:34;95605.66;;;5.40;89.94
8280;BME280;8335;42.646;23.380;2022-12-18T11:01:04;95599.66;;;5.47;89.28
8280;BME280;8335;42.646;23.380;2022-12-18T11:03:33;95604.63;;;5.53;89.44
8280;BME280;8335;42.646;23.380;2022-12-18T11:06:03;95607.09;;;5.56;88.92
8280;BME280;8335;42.646;23.380;2022-12-18T11:08:30;95605.31;;;5.63;88.52
8280;BME280;8335;42.646;23.380;2022-12-18T11:10:57;95605.28;;;5.64;88.55
8280;BME280;8335;42.646;23.380;2022-12-18T11:13:27;95605.28;;;5.66;89.05
8280;BME280;8335;42.646;23.380;2022-12-18T11:15:56;95612.00;;;5.67;87.95
8280;BME280;8335;42.646;23.380;2022-12-18T11:18:27;95603.66;;;5.62;88.02
8280;BME280;8335;42.646;23.380;2022-12-18T11:20:56;95601.19;;;5.57;87.29
8280;BME280;8335;42.646;23.380;2022-12-18T11:23:24;95606.22;;;5.60;87.42
8280;BME280;8335;42.646;23.380;2022-12-18T11:25:54;95603.63;;;5.63;85.74
8280;BME280;8335;42.646;23.380;2022-12-18T11:28:49;95613.72;;;5.65;84.65
8280;BME280;8335;42.646;23.380;2022-12-18T11:31:21;95603.78;;;5.52;83.92
8280;BME280;8335;42.646;23.380;2022-12-18T11:33:55;95616.34;;;5.57;83.92
8280;BME280;8335;42.646;23.380;2022-12-18T11:36:25;95614.81;;;5.47;85.78
8280;BME280;8335;42.646;23.380;2022-12-18T11:38:55;95616.47;;;5.48;85.27
8280;BME280;8335;42.646;23.380;2022-12-18T11:41:27;95623.13;;;5.55;85.15
8280;BME280;8335;42.646;23.380;2022-12-18T11:44:14;95613.19;;;5.44;85.30
8280;BME280;8335;42.646;23.380;2022-12-18T11:46:46;95611.66;;;5.31;85.18
8280;BME280;8335;42.646;23.380;2022-12-18T11:49:20;95581.56;;;5.17;85.63
8280;BME280;8335;42.646;23.380;2022-12-18T11:51:53;95619.88;;;5.47;86.14
8280;BME280;8335;42.646;23.380;2022-12-18T11:54:22;95618.19;;;5.46;85.79
8280;BME280;8335;42.646;23.380;2022-12-18T11:56:52;95623.22;;;5.47;85.19
8280;BME280;8335;42.646;23.380;2022-12-18T11:59:28;95618.09;;;5.53;85.36
8280;BME280;8335;42.646;23.380;2022-12-18T12:02:09;95620.41;;;5.67;85.24
8280;BME280;8335;42.646;23.380;2022-12-18T12:04:47;95615.47;;;5.60;84.84
8280;BME280;8335;42.646;23.380;2022-12-18T12:07:25;95620.50;;;5.61;83.56
8280;BME280;8335;42.646;23.380;2022-12-18T12:10:03;95607.09;;;5.58;82.94
8280;BME280;8335;42.646;23.380;2022-12-18T12:12:54;95614.53;;;5.67;82.69
8280;BME280;8335;42.646;23.380;2022-12-18T12:15:32;95614.66;;;5.59;83.27
8280;BME280;8335;42.646;23.380;2022-12-18T12:18:08;95621.56;;;5.46;84.37
8280;BME280;8335;42.646;23.380;2022-12-18T12:20:48;95621.59;;;5.42;84.30
8280;BME280;8335;42.646;23.380;2022-12-18T12:23:22;95618.28;;;5.40;84.45
8280;BME280;8335;42.646;23.380;2022-12-18T12:25:58;95616.53;;;5.45;85.37
8280;BME280;8335;42.646;23.380;2022-12-18T12:28:40;95614.94;;;5.38;85.13
8280;BME280;8335;42.646;23.380;2022-12-18T12:31:20;95622.53;;;5.38;85.96
8280;BME280;8335;42.646;23.380;2022-12-18T12:33:56;95628.44;;;5.37;86.03
8280;BME280;8335;42.646;23.380;2022-12-18T12:36:34;95626.66;;;5.43;85.84
8280;BME280;8335;42.646;23.380;2022-12-18T12:39:07;95622.44;;;5.42;85.70
8280;BME280;8335;42.646;23.380;2022-12-18T12:41:35;95624.78;;;5.56;86.05
8280;BME280;8335;42.646;23.380;2022-12-18T12:44:23;95539.69;;;5.03;86.15
8280;BME280;8335;42.646;23.380;2022-12-18T12:46:52;95617.22;;;5.55;87.42
8280;BME280;8335;42.646;23.380;2022-12-18T12:49:24;95628.16;;;5.55;86.01
8280;BME280;8335;42.646;23.380;2022-12-18T12:51:56;95630.56;;;5.64;85.78
8280;BME280;8335;42.646;23.380;2022-12-18T12:54:28;95639.84;;;5.62;85.78
8280;BME280;8335;42.646;23.380;2022-12-18T12:56:58;95631.66;;;5.46;86.28
8280;BME280;8335;42.646;23.380;2022-12-18T12:59:31;95630.75;;;5.52;86.92
8280;BME280;8335;42.646;23.380;2022-12-18T13:02:08;95639.13;;;5.54;86.50
8280;BME280;8335;42.646;23.380;2022-12-18T13:04:47;95650.06;;;5.58;86.68
8280;BME280;8335;42.646;23.380;2022-12-18T13:07:16;95655.19;;;5.50;86.65
8280;BME280;8335;42.646;23.380;2022-12-18T13:13:04;95654.53;;;5.36;87.34
8280;BME280;8335;42.646;23.380;2022-12-18T13:15:36;95655.38;;;5.35;87.56
8280;BME280;8335;42.646;23.380;2022-12-18T13:18:21;95657.16;;;5.28;87.56
8280;BME280;8335;42.646;23.380;2022-12-18T13:20:50;95656.22;;;5.35;88.29
8280;BME280;8335;42.646;23.380;2022-12-18T13:23:29;95648.72;;;5.31;88.14
8280;BME280;8335;42.646;23.380;2022-12-18T13:25:58;95655.47;;;5.30;88.64
8280;BME280;8335;42.646;23.380;2022-12-18T13:28:50;95663.75;;;5.40;88.56
8280;BME280;8335;42.646;23.380;2022-12-18T13:34:19;95654.53;;;5.36;87.25
8280;BME280;8335;42.646;23.380;2022-12-18T13:36:46;95672.91;;;5.47;86.87